createdAt,value
2022-10-09T00:01:15.692Z,7.45
2022-10-09T00:03:45.385Z,7.75
2022-10-09T00:06:15.519Z,7.97
2022-10-09T00:08:45.424Z,7.45
2022-10-09T00:11:24.337Z,8.20
2022-10-09T00:13:52.458Z,7.38
2022-10-09T00:16:20.502Z,7.05
2022-10-09T00:18:48.027Z,6.20
2022-10-09T00:21:19.008Z,5.88
2022-10-09T00:23:45.687Z,4.85
2022-10-09T00:26:12.333Z,4.75
2022-10-09T00:28:39.177Z,4.60
2022-10-09T00:31:10.412Z,4.10
2022-10-09T00:33:38.059Z,4.30
2022-10-09T00:36:07.533Z,4.43
2022-10-09T00:38:34.662Z,3.80
2022-10-09T00:41:02.732Z,4.80
2022-10-09T00:43:49.192Z,4.22
2022-10-09T00:46:27.695Z,4.28
2022-10-09T00:49:04.213Z,4.53
2022-10-09T00:51:32.499Z,4.43
2022-10-09T00:53:59.795Z,4.07
2022-10-09T00:56:26.847Z,4.38
2022-10-09T00:58:56.236Z,4.30
2022-10-09T01:01:23.084Z,4.50
2022-10-09T01:03:49.793Z,3.85
2022-10-09T01:06:19.068Z,4.88
2022-10-09T01:09:05.394Z,4.15
2022-10-09T01:11:47.969Z,4.50
2022-10-09T01:14:24.385Z,4.43
2022-10-09T01:17:02.473Z,4.40
2022-10-09T01:19:48.007Z,4.20
2022-10-09T01:22:38.853Z,4.47
2022-10-09T01:25:08.197Z,4.90
2022-10-09T01:27:36.974Z,4.60
2022-10-09T01:30:08.439Z,4.93
2022-10-09T01:32:39.634Z,5.05
2022-10-09T01:35:08.619Z,4.10
2022-10-09T01:37:38.421Z,4.55
2022-10-09T01:40:07.114Z,4.20
2022-10-09T01:42:34.421Z,4.28
2022-10-09T01:45:01.021Z,3.95
2022-10-09T01:47:27.789Z,4.47
2022-10-09T01:50:06.243Z,4.78
2022-10-09T01:52:50.099Z,3.83
2022-10-09T01:55:26.612Z,4.18
2022-10-09T01:58:03.048Z,4.20
2022-10-09T02:00:35.912Z,3.70
2022-10-09T02:03:06.513Z,4.43
2022-10-09T02:05:34.960Z,4.35
2022-10-09T02:08:01.833Z,4.60
2022-10-09T02:10:29.713Z,4.68
2022-10-09T02:12:59.617Z,4.35
2022-10-09T02:15:42.247Z,4.20
2022-10-09T02:18:12.901Z,4.60
2022-10-09T02:20:45.388Z,4.60
2022-10-09T02:23:13.779Z,4.22
2022-10-09T02:25:40.886Z,4.30
2022-10-09T02:28:09.522Z,4.00
2022-10-09T02:30:46.206Z,4.70
2022-10-09T02:33:12.880Z,4.80
2022-10-09T02:35:40.178Z,4.85
2022-10-09T02:38:06.798Z,4.85
2022-10-09T02:40:33.415Z,4.90
2022-10-09T02:43:00.002Z,4.30
2022-10-09T02:45:26.631Z,4.63
2022-10-09T02:47:53.440Z,4.18
2022-10-09T02:50:20.076Z,4.15
2022-10-09T02:52:47.045Z,4.20
2022-10-09T02:55:13.971Z,4.38
2022-10-09T02:57:40.664Z,4.20
2022-10-09T03:00:07.921Z,4.40
2022-10-09T03:02:34.645Z,4.88
2022-10-09T03:05:01.549Z,4.15
2022-10-09T03:07:28.180Z,5.18
2022-10-09T03:09:54.809Z,4.43
2022-10-09T03:12:22.129Z,4.32
2022-10-09T03:14:48.762Z,4.32
2022-10-09T03:17:15.395Z,4.35
2022-10-09T03:19:42.417Z,4.60
2022-10-09T03:22:09.061Z,4.53
2022-10-09T03:24:35.736Z,5.00
2022-10-09T03:27:02.372Z,4.40
2022-10-09T03:29:28.974Z,4.20
2022-10-09T03:31:55.621Z,4.80
2022-10-09T03:34:22.261Z,4.95
2022-10-09T03:36:48.889Z,4.20
2022-10-09T03:39:15.490Z,4.38
2022-10-09T03:41:42.134Z,4.43
2022-10-09T03:44:08.793Z,4.53
2022-10-09T03:46:35.482Z,4.55
2022-10-09T03:49:02.170Z,4.88
2022-10-09T03:51:28.837Z,4.57
2022-10-09T03:53:55.442Z,4.93
2022-10-09T03:56:22.078Z,4.68
2022-10-09T03:58:48.703Z,4.97
2022-10-09T04:01:15.492Z,4.10
2022-10-09T04:03:42.169Z,4.72
2022-10-09T04:06:08.801Z,4.75
2022-10-09T04:08:35.720Z,4.85
2022-10-09T04:11:03.099Z,4.43
2022-10-09T04:13:29.944Z,4.57
2022-10-09T04:15:57.183Z,4.32
2022-10-09T04:18:24.583Z,4.38
2022-10-09T04:20:53.032Z,4.57
2022-10-09T04:23:20.790Z,4.60
2022-10-09T04:25:47.541Z,4.90
2022-10-09T04:28:14.298Z,4.78
2022-10-09T04:30:41.418Z,4.85
2022-10-09T04:33:12.775Z,4.82
2022-10-09T04:35:45.036Z,4.97
2022-10-09T04:38:12.014Z,4.40
2022-10-09T04:40:38.697Z,4.80
2022-10-09T04:43:05.341Z,4.88
2022-10-09T04:45:32.236Z,4.90
2022-10-09T04:47:59.041Z,4.95
2022-10-09T04:50:25.808Z,4.38
2022-10-09T04:52:52.410Z,4.28
2022-10-09T04:55:19.121Z,4.72
2022-10-09T04:57:45.736Z,4.70
2022-10-09T05:00:13.161Z,4.68
2022-10-09T05:02:39.933Z,4.38
2022-10-09T05:05:06.997Z,4.65
2022-10-09T05:07:33.691Z,4.50
2022-10-09T05:10:00.321Z,4.63
2022-10-09T05:12:27.167Z,4.78
2022-10-09T05:14:53.810Z,4.43
2022-10-09T05:17:23.155Z,4.97
2022-10-09T05:19:50.359Z,4.53
2022-10-09T05:22:17.077Z,4.40
2022-10-09T05:24:43.685Z,4.43
2022-10-09T05:27:10.424Z,4.50
2022-10-09T05:29:37.049Z,4.80
2022-10-09T05:32:03.854Z,4.82
2022-10-09T05:34:30.534Z,4.25
2022-10-09T05:36:57.188Z,5.15
2022-10-09T05:39:23.856Z,5.40
2022-10-09T05:41:50.506Z,4.93
2022-10-09T05:44:17.156Z,4.63
2022-10-09T05:46:43.853Z,5.00
2022-10-09T05:49:12.100Z,5.15
2022-10-09T05:51:39.960Z,5.05
2022-10-09T05:54:06.973Z,5.07
2022-10-09T05:56:36.606Z,5.10
2022-10-09T05:59:08.710Z,5.03
2022-10-09T06:01:38.569Z,5.13
2022-10-09T06:04:09.276Z,4.82
2022-10-09T06:06:38.123Z,4.70
2022-10-09T06:09:06.236Z,5.05
2022-10-09T06:11:35.342Z,4.80
2022-10-09T06:14:04.490Z,5.00
2022-10-09T06:16:36.365Z,5.07
2022-10-09T06:19:03.952Z,5.18
2022-10-09T06:21:30.720Z,5.28
2022-10-09T06:23:59.496Z,5.20
2022-10-09T06:26:30.977Z,4.85
2022-10-09T06:28:59.363Z,4.93
2022-10-09T06:31:30.805Z,5.28
2022-10-09T06:33:59.917Z,4.85
2022-10-09T06:36:28.986Z,5.40
2022-10-09T06:38:56.314Z,4.82
2022-10-09T06:41:25.904Z,5.55
2022-10-09T06:43:55.661Z,5.50
2022-10-09T06:46:28.867Z,5.75
2022-10-09T06:48:56.021Z,4.90
2022-10-09T06:51:23.509Z,5.40
2022-10-09T06:53:52.716Z,5.95
2022-10-09T06:56:21.139Z,5.07
2022-10-09T06:58:48.255Z,5.43
2022-10-09T07:01:32.690Z,4.93
2022-10-09T07:04:10.916Z,5.22
2022-10-09T07:06:43.126Z,4.70
2022-10-09T07:09:11.886Z,5.72
2022-10-09T07:11:41.039Z,8.40
2022-10-09T07:14:09.546Z,6.80
2022-10-09T07:16:39.252Z,5.53
2022-10-09T07:19:08.213Z,5.45
2022-10-09T07:21:35.754Z,5.70
2022-10-09T07:24:03.864Z,5.47
2022-10-09T07:26:35.020Z,5.35
2022-10-09T07:29:01.955Z,6.03
2022-10-09T07:31:29.160Z,5.95
2022-10-09T07:33:56.913Z,6.75
2022-10-09T07:36:24.407Z,6.35
2022-10-09T07:38:53.486Z,6.57
2022-10-09T07:41:21.814Z,6.25
2022-10-09T07:43:48.914Z,6.13
2022-10-09T07:46:18.982Z,6.30
2022-10-09T07:48:46.586Z,5.65
2022-10-09T07:51:21.169Z,6.20
2022-10-09T07:53:48.268Z,7.00
2022-10-09T07:56:20.433Z,5.90
2022-10-09T07:58:55.011Z,5.95
2022-10-09T08:01:24.040Z,5.85
2022-10-09T08:03:51.666Z,5.07
2022-10-09T08:06:18.805Z,5.47
2022-10-09T08:08:45.658Z,6.22
2022-10-09T08:11:17.022Z,5.43
2022-10-09T08:13:44.832Z,6.00
2022-10-09T08:16:12.463Z,4.97
2022-10-09T08:18:39.641Z,5.30
2022-10-09T08:21:09.096Z,4.93
2022-10-09T08:23:35.818Z,5.80
2022-10-09T08:26:03.480Z,5.47
2022-10-09T08:28:30.767Z,5.30
2022-10-09T08:30:57.480Z,5.35
2022-10-09T08:33:25.846Z,5.13
2022-10-09T08:35:54.325Z,14.68
2022-10-09T08:38:45.565Z,6.05
2022-10-09T08:41:29.138Z,5.90
2022-10-09T08:44:04.884Z,5.22
2022-10-09T08:47:12.614Z,5.40
2022-10-09T08:49:45.190Z,5.00
2022-10-09T08:52:24.891Z,4.80
2022-10-09T08:54:54.181Z,5.63
2022-10-09T08:57:22.674Z,4.63
2022-10-09T08:59:49.357Z,5.03
2022-10-09T09:02:18.831Z,4.90
2022-10-09T09:05:03.761Z,5.20
2022-10-09T09:07:40.006Z,5.43
2022-10-09T09:10:40.596Z,4.47
2022-10-09T09:15:59.575Z,4.85
2022-10-09T09:18:40.836Z,4.80
2022-10-09T09:21:28.265Z,5.20
2022-10-09T09:23:55.561Z,4.93
2022-10-09T09:26:23.175Z,4.72
2022-10-09T09:28:54.944Z,5.28
2022-10-09T09:31:26.091Z,4.72
2022-10-09T09:34:26.796Z,5.00
2022-10-09T09:36:57.006Z,4.78
2022-10-09T09:42:20.064Z,6.35
2022-10-09T09:44:58.606Z,10.60
2022-10-09T09:47:34.564Z,5.50
2022-10-09T09:50:04.635Z,6.20
2022-10-09T09:52:36.237Z,5.82
2022-10-09T09:55:03.596Z,5.25
2022-10-09T09:57:45.224Z,4.85
2022-10-09T10:00:19.804Z,4.63
2022-10-09T10:02:46.963Z,4.70
2022-10-09T10:05:27.278Z,4.78
2022-10-09T10:07:54.463Z,4.18
2022-10-09T10:10:29.283Z,4.47
2022-10-09T10:12:58.486Z,4.38
2022-10-09T10:15:30.962Z,4.10
2022-10-09T10:18:07.694Z,4.18
2022-10-09T10:21:03.454Z,4.25
2022-10-09T10:23:43.853Z,4.25
2022-10-09T10:29:32.307Z,4.25
2022-10-09T10:32:23.498Z,4.47
2022-10-09T10:35:04.036Z,4.25
2022-10-09T10:37:58.559Z,4.38
2022-10-09T10:40:37.542Z,4.60
2022-10-09T10:43:07.706Z,3.95
2022-10-09T10:45:55.982Z,4.10
2022-10-09T10:48:29.434Z,5.13
2022-10-09T10:51:11.619Z,4.05
2022-10-09T10:53:38.247Z,4.30
2022-10-09T10:56:34.489Z,3.92
2022-10-09T10:59:12.417Z,4.38
2022-10-09T11:01:52.623Z,4.57
2022-10-09T11:04:35.407Z,4.40
2022-10-09T11:07:22.990Z,4.50
2022-10-09T11:10:04.077Z,4.97
2022-10-09T11:12:55.441Z,4.65
2022-10-09T11:15:28.118Z,4.85
2022-10-09T11:17:58.600Z,5.30
2022-10-09T11:20:59.335Z,5.07
2022-10-09T11:24:15.665Z,5.95
2022-10-09T11:27:03.161Z,4.50
2022-10-09T11:29:55.349Z,5.03
2022-10-09T11:32:27.256Z,4.38
2022-10-09T11:35:05.113Z,4.70
2022-10-09T11:37:35.173Z,4.70
2022-10-09T11:40:14.561Z,4.72
2022-10-09T11:42:41.486Z,5.27
2022-10-09T11:45:27.213Z,4.68
2022-10-09T11:48:12.404Z,5.05
2022-10-09T11:51:00.399Z,4.43
2022-10-09T11:53:30.208Z,3.78
2022-10-09T11:56:22.145Z,4.65
2022-10-09T11:59:07.139Z,4.65
2022-10-09T12:01:37.893Z,4.25
2022-10-09T12:04:06.003Z,4.55
2022-10-09T12:06:44.898Z,4.10
2022-10-09T12:09:22.372Z,4.10
2022-10-09T12:12:07.195Z,4.32
2022-10-09T12:14:37.175Z,3.78
2022-10-09T12:17:21.633Z,4.38
2022-10-09T12:19:53.875Z,3.90
2022-10-09T12:23:01.556Z,3.97
2022-10-09T12:25:44.320Z,3.75
2022-10-09T12:28:37.596Z,3.97
2022-10-09T12:31:08.794Z,3.97
2022-10-09T12:33:49.718Z,4.43
2022-10-09T12:36:24.528Z,4.13
2022-10-09T12:38:51.746Z,4.32
2022-10-09T12:41:28.922Z,5.03
2022-10-09T12:43:57.372Z,4.88
2022-10-09T12:46:31.835Z,4.55
2022-10-09T12:48:59.815Z,4.82
2022-10-09T12:51:30.047Z,4.90
2022-10-09T12:53:56.846Z,5.30
2022-10-09T12:56:32.895Z,4.05
2022-10-09T12:59:01.451Z,4.82
2022-10-09T13:01:28.690Z,4.32
2022-10-09T13:03:59.491Z,4.65
2022-10-09T13:06:42.800Z,4.43
2022-10-09T13:09:30.188Z,4.40
2022-10-09T13:12:19.401Z,4.10
2022-10-09T13:14:53.133Z,4.80
2022-10-09T13:20:12.862Z,3.95
2022-10-09T13:22:40.033Z,4.68
2022-10-09T13:25:07.169Z,4.00
2022-10-09T13:27:38.233Z,4.70
2022-10-09T13:30:06.281Z,4.40
2022-10-09T13:32:32.921Z,4.65
2022-10-09T13:34:59.546Z,4.72
2022-10-09T13:37:27.253Z,4.50
2022-10-09T13:39:58.697Z,3.97
2022-10-09T13:42:28.144Z,3.47
2022-10-09T13:44:54.801Z,3.13
2022-10-09T13:47:24.619Z,3.33
2022-10-09T13:49:51.515Z,3.45
2022-10-09T13:52:18.198Z,2.90
2022-10-09T13:54:45.127Z,2.60
2022-10-09T13:57:11.901Z,2.28
2022-10-09T13:59:38.698Z,2.30
2022-10-09T14:02:05.503Z,2.58
2022-10-09T14:04:32.267Z,2.13
2022-10-09T14:06:58.921Z,2.10
2022-10-09T14:09:25.654Z,1.90
2022-10-09T14:11:52.325Z,1.92
2022-10-09T14:14:19.049Z,1.90
2022-10-09T14:16:45.725Z,2.10
2022-10-09T14:19:12.362Z,1.85
2022-10-09T14:21:39.033Z,1.98
2022-10-09T14:24:05.963Z,2.10
2022-10-09T14:26:34.007Z,2.00
2022-10-09T14:29:04.477Z,1.85
2022-10-09T14:31:31.180Z,1.98
2022-10-09T14:33:59.631Z,2.08
2022-10-09T14:36:27.273Z,1.90
2022-10-09T14:38:53.929Z,2.20
2022-10-09T14:41:21.419Z,1.90
2022-10-09T14:43:49.051Z,2.00
2022-10-09T14:46:17.473Z,2.42
2022-10-09T14:48:45.950Z,2.42
2022-10-09T14:51:20.879Z,2.03
2022-10-09T14:53:48.175Z,2.38
2022-10-09T14:56:18.172Z,2.28
2022-10-09T14:58:45.197Z,2.10
2022-10-09T15:01:14.106Z,1.67
2022-10-09T15:03:41.195Z,2.03
2022-10-09T15:06:10.633Z,2.70
2022-10-09T15:08:41.357Z,2.13
2022-10-09T15:11:09.698Z,2.08
2022-10-09T15:13:37.378Z,2.20
2022-10-09T15:16:10.709Z,2.28
2022-10-09T15:18:37.520Z,2.40
2022-10-09T15:21:04.774Z,2.17
2022-10-09T15:23:31.915Z,2.70
2022-10-09T15:26:00.628Z,2.22
2022-10-09T15:28:27.780Z,2.10
2022-10-09T15:31:00.389Z,2.30
2022-10-09T15:33:27.662Z,2.10
2022-10-09T15:35:54.491Z,2.45
2022-10-09T15:38:23.443Z,2.05
2022-10-09T15:40:55.617Z,2.10
2022-10-09T15:43:24.662Z,2.28
2022-10-09T15:45:54.089Z,2.03
2022-10-09T15:48:24.956Z,2.03
2022-10-09T15:50:53.640Z,2.00
2022-10-09T15:53:22.628Z,2.17
2022-10-09T15:55:51.370Z,1.95
2022-10-09T15:58:18.867Z,2.40
2022-10-09T16:00:48.511Z,2.25
2022-10-09T16:03:17.417Z,2.63
2022-10-09T16:05:48.424Z,1.90
2022-10-09T16:08:16.120Z,2.03
2022-10-09T16:10:49.156Z,1.98
2022-10-09T16:13:16.637Z,1.95
2022-10-09T16:15:44.752Z,1.80
2022-10-09T16:18:11.750Z,2.00
2022-10-09T16:20:39.381Z,1.83
2022-10-09T16:23:06.786Z,2.08
2022-10-09T16:25:34.103Z,2.35
2022-10-09T16:28:00.733Z,2.20
2022-10-09T16:30:27.956Z,2.40
2022-10-09T16:32:54.584Z,2.10
2022-10-09T16:35:24.425Z,2.20
2022-10-09T16:37:54.196Z,2.50
2022-10-09T16:40:25.426Z,2.63
2022-10-09T16:43:02.553Z,2.50
2022-10-09T16:45:29.332Z,2.47
2022-10-09T16:47:59.643Z,2.88
2022-10-09T16:52:53.458Z,2.47
2022-10-09T16:55:20.095Z,2.40
2022-10-09T16:57:46.853Z,2.53
2022-10-09T17:00:18.184Z,3.00
2022-10-09T17:02:45.790Z,2.42
2022-10-09T17:05:13.389Z,2.70
2022-10-09T17:07:40.053Z,2.80
2022-10-09T17:10:07.351Z,2.65
2022-10-09T17:12:34.056Z,2.80
2022-10-09T17:15:00.694Z,2.78
2022-10-09T17:17:27.367Z,2.50
2022-10-09T17:19:54.018Z,2.75
2022-10-09T17:22:20.638Z,2.85
2022-10-09T17:24:47.336Z,2.83
2022-10-09T17:27:13.966Z,2.80
2022-10-09T17:29:40.619Z,4.32
2022-10-09T17:32:09.272Z,2.72
2022-10-09T17:34:36.030Z,3.30
2022-10-09T17:37:02.833Z,4.88
2022-10-09T17:39:29.550Z,4.72
2022-10-09T17:41:56.485Z,3.28
2022-10-09T17:44:23.468Z,5.20
2022-10-09T17:46:50.146Z,8.60
2022-10-09T17:49:16.825Z,6.22
2022-10-09T17:51:43.477Z,4.88
2022-10-09T17:54:16.818Z,3.70
2022-10-09T17:56:43.728Z,3.63
2022-10-09T17:59:11.160Z,4.13
2022-10-09T18:01:38.554Z,4.03
2022-10-09T18:04:05.406Z,3.83
2022-10-09T18:06:34.211Z,3.63
2022-10-09T18:09:02.022Z,3.30
2022-10-09T18:11:29.908Z,3.63
2022-10-09T18:13:56.655Z,4.18
2022-10-09T18:16:35.262Z,3.95
2022-10-09T18:19:05.638Z,4.18
2022-10-09T18:21:32.745Z,5.38
2022-10-09T18:23:59.704Z,5.63
2022-10-09T18:26:26.584Z,5.65
2022-10-09T18:28:53.341Z,5.75
2022-10-09T18:31:22.812Z,5.65
2022-10-09T18:33:49.961Z,6.90
2022-10-09T18:36:23.201Z,6.35
2022-10-09T18:38:54.361Z,8.23
2022-10-09T18:41:22.834Z,7.00
2022-10-09T18:43:51.408Z,5.60
2022-10-09T18:46:21.219Z,5.45
2022-10-09T18:48:48.192Z,5.78
2022-10-09T18:51:17.847Z,4.68
2022-10-09T18:53:50.740Z,5.28
2022-10-09T18:56:19.136Z,5.60
2022-10-09T18:58:47.010Z,5.20
2022-10-09T19:01:13.873Z,4.82
2022-10-09T19:03:45.926Z,5.05
2022-10-09T19:06:16.095Z,4.45
2022-10-09T19:08:43.657Z,4.10
2022-10-09T19:11:12.255Z,4.18
2022-10-09T19:13:39.002Z,4.15
2022-10-09T19:16:06.201Z,3.60
2022-10-09T19:18:35.062Z,3.95
2022-10-09T19:21:02.555Z,3.45
2022-10-09T19:23:29.977Z,3.70
2022-10-09T19:25:58.207Z,4.25
2022-10-09T19:28:27.863Z,5.00
2022-10-09T19:30:54.541Z,5.30
2022-10-09T19:33:21.438Z,4.70
2022-10-09T19:35:53.683Z,4.30
2022-10-09T19:38:22.217Z,4.30
2022-10-09T19:40:49.747Z,4.97
2022-10-09T19:43:17.857Z,4.55
2022-10-09T19:45:44.945Z,4.13
2022-10-09T19:48:11.597Z,4.10
2022-10-09T19:50:43.212Z,5.25
2022-10-09T19:53:11.065Z,4.53
2022-10-09T19:55:38.184Z,4.70
2022-10-09T19:58:05.232Z,3.95
2022-10-09T20:00:31.996Z,3.67
2022-10-09T20:02:58.667Z,3.88
2022-10-09T20:05:25.346Z,3.90
2022-10-09T20:07:52.048Z,3.85
2022-10-09T20:10:18.893Z,4.18
2022-10-09T20:12:45.646Z,3.95
2022-10-09T20:15:12.300Z,3.88
2022-10-09T20:17:38.914Z,4.00
2022-10-09T20:20:06.816Z,3.63
2022-10-09T20:22:33.463Z,4.15
2022-10-09T20:25:00.104Z,4.07
2022-10-09T20:27:26.751Z,3.97
2022-10-09T20:29:53.889Z,3.58
2022-10-09T20:32:20.592Z,3.50
2022-10-09T20:34:47.270Z,3.65
2022-10-09T20:37:13.927Z,3.72
2022-10-09T20:39:40.650Z,3.95
2022-10-09T20:42:07.600Z,3.80
2022-10-09T20:44:34.319Z,3.40
2022-10-09T20:47:01.050Z,3.53
2022-10-09T20:49:27.910Z,3.88
2022-10-09T20:51:56.660Z,3.60
2022-10-09T20:54:23.340Z,4.05
2022-10-09T20:56:50.619Z,3.70
2022-10-09T20:59:18.154Z,3.72
2022-10-09T21:01:45.598Z,3.75
2022-10-09T21:04:12.570Z,3.72
2022-10-09T21:06:39.955Z,3.83
2022-10-09T21:09:07.319Z,3.65
2022-10-09T21:11:34.923Z,3.97
2022-10-09T21:14:02.842Z,3.35
2022-10-09T21:16:29.718Z,4.00
2022-10-09T21:19:01.737Z,3.47
2022-10-09T21:21:29.708Z,3.72
2022-10-09T21:23:57.789Z,3.90
2022-10-09T21:26:25.799Z,4.07
2022-10-09T21:28:58.223Z,3.65
2022-10-09T21:31:28.311Z,3.53
2022-10-09T21:33:55.305Z,3.65
2022-10-09T21:39:39.774Z,3.78
2022-10-09T21:42:06.413Z,4.00
2022-10-09T21:44:33.166Z,3.72
2022-10-09T21:46:59.799Z,3.58
2022-10-09T21:49:27.901Z,3.85
2022-10-09T21:51:55.127Z,3.97
2022-10-09T21:54:21.967Z,4.20
2022-10-09T21:56:48.719Z,4.20
2022-10-09T21:59:15.341Z,4.10
2022-10-09T22:01:42.009Z,3.78
2022-10-09T22:04:08.765Z,3.97
2022-10-09T22:06:35.425Z,3.90
2022-10-09T22:09:02.069Z,4.07
2022-10-09T22:11:28.737Z,3.90
2022-10-09T22:13:56.116Z,4.30
2022-10-09T22:16:23.195Z,4.20
2022-10-09T22:18:49.831Z,4.50
2022-10-09T22:21:17.291Z,3.97
2022-10-09T22:23:43.971Z,4.68
2022-10-09T22:26:13.747Z,4.28
2022-10-09T22:28:40.897Z,4.35
2022-10-09T22:31:20.354Z,4.22
2022-10-09T22:33:58.694Z,4.53
2022-10-09T22:36:27.977Z,4.55
2022-10-09T22:38:57.408Z,4.63
2022-10-09T22:41:25.783Z,4.60
2022-10-09T22:43:54.858Z,4.30
2022-10-09T22:46:25.407Z,4.32
2022-10-09T22:48:52.629Z,4.22
2022-10-09T22:51:21.680Z,4.40
2022-10-09T22:53:48.680Z,4.50
2022-10-09T22:56:24.113Z,4.20
2022-10-09T22:58:52.964Z,4.03
2022-10-09T23:01:25.244Z,4.68
2022-10-09T23:03:52.003Z,4.47
2022-10-09T23:06:20.017Z,4.22
2022-10-09T23:08:48.138Z,4.20
2022-10-09T23:11:16.226Z,4.28
2022-10-09T23:13:43.356Z,4.40
2022-10-09T23:16:12.288Z,4.57
2022-10-09T23:18:39.854Z,4.50
2022-10-09T23:21:09.623Z,3.95
2022-10-09T23:23:36.404Z,4.47
2022-10-09T23:26:12.097Z,4.38
2022-10-09T23:28:39.429Z,4.60
2022-10-09T23:31:09.327Z,4.95
2022-10-09T23:33:39.408Z,4.40
2022-10-09T23:36:08.033Z,4.72
2022-10-09T23:38:35.003Z,4.82
2022-10-09T23:41:04.243Z,4.47
2022-10-09T23:43:32.579Z,4.72
2022-10-09T23:46:01.365Z,4.68
2022-10-09T23:48:28.474Z,5.18
2022-10-09T23:50:56.279Z,4.53
2022-10-09T23:53:24.635Z,4.97
2022-10-09T23:55:51.437Z,4.93
2022-10-09T23:58:20.821Z,4.60
